Time;durP1;ratioP1;P1;durP2;ratioP2;P2;SDS_P1;SDS_P2;PMS_P1;PMS_P2;Temp;Humidity;BMP_temperature;BMP_pressure;BME280_temperature;BME280_humidity;BME280_pressure;Samples;Min_cycle;Max_cycle;Signal;HPM_P1;HPM_P2
2021/07/21 00:00:50;;;;;;;8.30;6.82;;;17.50;64.00;;;17.44;47.96;95360.69;5035349;28;20216;-86
2021/07/21 00:03:19;;;;;;;8.95;7.22;;;17.40;64.40;;;17.45;47.69;95364.97;5018687;28;20204;-86
2021/07/21 00:05:48;;;;;;;9.10;7.15;;;17.50;64.30;;;17.44;48.08;95358.03;5002791;28;20258;-86
2021/07/21 00:08:15;;;;;;;8.68;6.82;;;17.50;64.20;;;17.48;48.29;95361.06;5002722;28;20212;-86
2021/07/21 00:10:45;;;;;;;8.40;7.22;;;17.40;64.10;;;17.47;47.71;95352.31;5002556;28;20227;-86
2021/07/21 00:13:32;;;;;;;10.25;6.72;;;17.50;64.20;;;17.48;48.32;95359.22;4986499;28;20603;-86
2021/07/21 00:20:59;;;;;;;10.27;6.95;;;17.50;64.10;;;17.47;48.18;95349.66;5018583;28;20290;-86
2021/07/21 00:23:27;;;;;;;8.88;7.10;;;17.50;64.00;;;17.51;48.21;95356.09;5001959;28;20296;-86
2021/07/21 00:25:56;;;;;;;11.48;7.68;;;17.50;64.00;;;17.51;48.27;95364.06;5002246;28;20299;-86
2021/07/21 00:28:24;;;;;;;9.30;6.95;;;17.50;64.40;;;17.53;48.41;95353.25;5002105;28;20200;-86
2021/07/21 00:30:52;;;;;;;8.70;6.63;;;17.60;65.30;;;17.53;48.27;95358.56;4985955;28;20220;-86
2021/07/21 00:33:20;;;;;;;9.25;6.68;;;17.60;64.50;;;17.53;48.37;95359.34;4986081;28;20242;-85
2021/07/21 00:35:47;;;;;;;8.70;6.47;;;17.60;64.30;;;17.52;48.37;95349.78;5001927;28;20278;-85
2021/07/21 00:38:15;;;;;;;7.93;6.40;;;17.60;64.30;;;17.54;48.33;95358.31;5002254;28;20287;-86
2021/07/21 00:40:43;;;;;;;10.93;6.57;;;17.60;64.50;;;17.51;48.09;95363.28;5002080;28;20266;-86
2021/07/21 00:43:11;;;;;;;8.85;7.15;;;17.50;64.40;;;17.55;48.51;95367.91;4986188;28;20206;-86
2021/07/21 00:45:40;;;;;;;9.00;6.65;;;17.60;64.60;;;17.55;48.84;95356.47;5018432;28;20231;-86
2021/07/21 00:48:07;;;;;;;11.52;7.50;;;17.50;64.50;;;17.51;48.69;95350.81;5018437;28;20267;-86
2021/07/21 00:50:36;;;;;;;9.73;7.60;;;17.60;65.00;;;17.54;48.69;95357.50;5002077;28;20310;-86
2021/07/21 00:53:03;;;;;;;9.25;7.07;;;17.60;65.10;;;17.53;48.93;95362.00;5001761;28;20216;-86
2021/07/21 00:55:32;;;;;;;10.70;7.78;;;17.60;65.00;;;17.50;49.38;95351.03;5001218;28;20216;-86
2021/07/21 00:58:00;;;;;;;8.80;7.22;;;17.60;65.10;;;17.50;49.31;95359.78;5001682;28;20206;-86
2021/07/21 01:00:29;;;;;;;8.25;7.22;;;17.60;65.20;;;17.50;49.22;95359.00;5001672;28;20212;-86
2021/07/21 01:02:57;;;;;;;9.70;7.47;;;17.60;65.30;;;17.47;49.47;95354.94;5017468;28;20250;-87
2021/07/21 01:05:33;;;;;;;9.25;6.95;;;17.60;65.30;;;17.47;49.71;95356.78;4986432;28;20220;-86
2021/07/21 01:08:07;;;;;;;10.80;7.25;;;17.50;65.70;;;17.39;49.88;95352.59;5018753;28;20176;-85
2021/07/21 01:11:19;;;;;;;8.85;6.90;;;17.50;66.30;;;17.39;50.08;95353.44;5003183;28;20216;-86
2021/07/21 01:13:55;;;;;;;10.20;7.32;;;17.60;66.10;;;17.36;50.25;95355.72;4991522;28;20235;-86
2021/07/21 01:16:29;;;;;;;9.40;7.45;;;17.50;66.00;;;17.35;49.79;95352.25;5018103;28;20188;-86
2021/07/21 01:19:18;;;;;;;9.13;6.95;;;17.50;66.10;;;17.34;49.87;95358.56;5001631;28;20238;-86
2021/07/21 01:22:09;;;;;;;8.50;7.10;;;17.50;66.30;;;17.32;50.35;95349.22;5017816;28;20248;-86
2021/07/21 01:25:01;;;;;;;9.63;7.15;;;17.50;66.40;;;17.30;50.30;95360.06;4985993;28;20228;-86
2021/07/21 01:27:40;;;;;;;9.07;7.55;;;17.50;66.40;;;17.28;50.19;95359.47;5001352;28;20204;-86
2021/07/21 01:30:19;;;;;;;7.55;6.68;;;17.50;66.60;;;17.27;50.69;95355.19;5001107;28;20262;-86
2021/07/21 01:33:06;;;;;;;9.45;6.90;;;17.50;66.80;;;17.26;50.36;95353.59;5002080;28;20232;-85
2021/07/21 01:35:53;;;;;;;8.43;6.93;;;17.40;66.40;;;17.27;50.62;95356.00;5000791;28;20236;-86
2021/07/21 01:38:29;;;;;;;9.25;7.13;;;17.40;66.50;;;17.26;50.56;95354.38;4985520;28;20208;-86
2021/07/21 01:41:11;;;;;;;10.07;7.50;;;17.40;66.60;;;17.23;50.51;95346.06;4985462;28;20335;-85
2021/07/21 01:43:41;;;;;;;8.30;7.00;;;17.40;66.70;;;17.20;50.88;95349.97;5000956;28;20210;-84
2021/07/21 01:46:10;;;;;;;15.98;8.05;;;17.30;66.40;;;17.16;50.45;95363.91;5000843;28;20224;-86
2021/07/21 01:48:41;;;;;;;8.82;7.88;;;17.30;66.30;;;17.16;50.75;95362.03;5000695;28;20192;-86
2021/07/21 01:51:10;;;;;;;9.25;7.43;;;17.30;66.80;;;17.15;50.98;95368.41;5000485;28;20334;-86
2021/07/21 01:53:40;;;;;;;11.30;7.30;;;17.30;66.70;;;17.12;51.28;95371.47;4984611;28;20246;-86
2021/07/21 01:56:14;;;;;;;8.90;7.78;;;17.30;66.70;;;17.09;50.89;95366.63;4986055;28;20243;-86
2021/07/21 01:58:44;;;;;;;10.60;7.72;;;17.30;66.70;;;17.05;51.25;95363.63;5016620;28;20192;-87
2021/07/21 02:01:34;;;;;;;11.65;8.45;;;17.30;66.70;;;16.99;50.96;95361.84;5004524;28;20199;-86
2021/07/21 02:04:09;;;;;;;12.75;8.18;;;17.20;66.30;;;16.96;51.24;95363.06;5002023;28;20231;-86
2021/07/21 02:06:37;;;;;;;9.57;7.57;;;17.10;66.40;;;16.88;50.73;95349.28;4999380;28;20246;-86
2021/07/21 02:09:10;;;;;;;9.23;7.40;;;17.10;66.30;;;16.88;51.27;95359.88;5001281;28;20620;-86
2021/07/21 02:11:41;;;;;;;11.10;8.27;;;17.10;66.60;;;16.84;51.44;95361.38;4985463;28;20219;-86
2021/07/21 02:14:12;;;;;;;9.88;7.95;;;17.00;66.60;;;16.78;51.39;95365.69;5000291;28;20291;-86
2021/07/21 02:16:53;;;;;;;11.48;8.75;;;17.00;66.70;;;16.69;52.13;95362.53;5003649;28;20200;-86
2021/07/21 02:19:31;;;;;;;13.32;9.90;;;16.90;66.70;;;16.61;51.91;95362.81;5031718;28;20689;-86
2021/07/21 02:22:21;;;;;;;12.77;9.27;;;16.90;66.80;;;16.56;52.23;95360.00;5004766;28;20196;-85
2021/07/21 02:25:06;;;;;;;13.10;9.75;;;16.90;67.00;;;16.50;52.16;95351.09;5004653;28;20247;-85
2021/07/21 02:27:39;;;;;;;10.90;9.23;;;16.80;66.80;;;16.41;52.21;95347.13;5000456;28;20600;-86
2021/07/21 02:30:10;;;;;;;13.00;9.95;;;16.80;66.90;;;16.41;52.19;95358.50;5000140;28;20709;-86
2021/07/21 02:32:46;;;;;;;12.90;9.70;;;16.70;66.90;;;16.40;52.36;95364.03;5032712;28;20241;-86
2021/07/21 02:35:18;;;;;;;12.73;9.65;;;16.60;67.00;;;16.37;52.81;95362.63;4984040;28;20212;-86
2021/07/21 02:37:48;;;;;;;12.23;9.85;;;16.60;66.90;;;16.30;52.57;95349.44;4985122;28;20202;-86
2021/07/21 02:40:19;;;;;;;14.15;9.15;;;16.60;67.00;;;16.35;52.75;95364.66;5000143;28;20708;-85
2021/07/21 02:42:54;;;;;;;12.88;10.13;;;16.60;67.10;;;16.35;52.90;95363.88;5015967;28;20230;-86
2021/07/21 02:45:24;;;;;;;13.07;10.00;;;16.60;67.10;;;16.34;52.61;95365.69;4999860;28;20215;-85
2021/07/21 02:47:52;;;;;;;11.77;9.38;;;16.60;67.20;;;16.32;52.84;95359.81;4999652;28;20196;-87
2021/07/21 02:50:20;;;;;;;12.18;9.52;;;16.60;67.20;;;16.35;52.42;95363.88;4983463;28;20223;-86
2021/07/21 02:53:01;;;;;;;13.45;9.77;;;16.50;67.20;;;16.35;52.42;95362.03;4999592;28;20226;-86
2021/07/21 02:55:48;;;;;;;11.77;8.93;;;16.50;67.50;;;16.35;52.53;95372.59;5001744;28;20251;-85
2021/07/21 02:58:19;;;;;;;11.43;9.63;;;16.50;67.20;;;16.35;52.56;95374.47;5016240;28;20200;-86
2021/07/21 03:00:55;;;;;;;14.02;10.35;;;16.60;67.40;;;16.33;53.17;95374.66;5015822;28;20228;-86
2021/07/21 03:03:27;;;;;;;14.60;10.35;;;16.60;67.30;;;16.32;53.04;95384.44;5000442;28;20249;-85
2021/07/21 03:06:06;;;;;;;14.60;10.35;;;16.50;67.20;;;16.34;52.70;95381.56;4984482;28;20239;-86
2021/07/21 03:08:56;;;;;;;12.30;9.95;;;16.50;67.40;;;16.33;52.88;95387.88;5011824;28;20596;-86
2021/07/21 03:11:34;;;;;;;13.35;10.10;;;16.50;67.30;;;16.33;52.61;95390.53;5000492;28;20192;-85
2021/07/21 03:14:04;;;;;;;15.68;10.85;;;16.60;67.50;;;16.31;53.10;95382.03;5000032;28;20653;-86
2021/07/21 03:16:46;;;;;;;13.77;10.77;;;16.50;67.50;;;16.31;53.29;95382.81;5017630;28;20191;-86
2021/07/21 03:19:26;;;;;;;13.93;10.32;;;16.50;67.60;;;16.30;53.63;95391.78;5004176;28;20751;-86
2021/07/21 03:22:01;;;;;;;16.23;10.35;;;16.50;67.80;;;16.30;53.53;95385.69;5004272;28;20613;-86
2021/07/21 03:24:32;;;;;;;14.05;10.75;;;16.50;67.70;;;16.30;53.52;95383.84;5003629;28;20215;-86
2021/07/21 03:27:20;;;;;;;15.20;10.85;;;16.50;67.70;;;16.30;53.65;95391.78;5022917;28;20183;-86
2021/07/21 03:30:12;;;;;;;14.98;10.57;;;16.50;68.00;;;16.29;53.71;95386.72;5009018;28;20571;-86
2021/07/21 03:32:49;;;;;;;15.52;11.80;;;16.50;68.90;;;16.30;53.54;95396.28;5002394;28;20223;-85
2021/07/21 03:35:25;;;;;;;16.95;11.60;;;16.50;68.00;;;16.29;53.22;95392.00;5004252;28;20716;-86
2021/07/21 03:37:56;;;;;;;13.70;11.00;;;16.50;68.00;;;16.29;53.77;95402.59;5003186;28;20642;-86
2021/07/21 03:40:26;;;;;;;13.52;10.85;;;16.50;67.90;;;16.29;53.93;95397.31;5003120;28;20226;-86
2021/07/21 03:43:10;;;;;;;15.35;11.18;;;16.50;68.10;;;16.27;54.34;95397.53;5007221;28;20654;-86
2021/07/21 03:45:46;;;;;;;14.73;11.13;;;16.50;68.10;;;16.26;53.90;95403.00;5005657;28;20290;-86
2021/07/21 03:48:14;;;;;;;16.23;11.63;;;16.40;68.10;;;16.25;54.31;95409.34;5002887;28;20575;-87
2021/07/21 03:51:04;;;;;;;14.75;11.27;;;16.50;68.20;;;16.22;54.44;95405.31;5021731;28;20235;-86
2021/07/21 03:53:45;;;;;;;15.13;11.63;;;16.40;68.20;;;16.24;54.55;95405.09;5004386;28;20249;-86
2021/07/21 03:56:13;;;;;;;16.67;11.55;;;16.60;68.60;;;16.22;55.07;95409.78;5002937;28;20235;-86
2021/07/21 03:58:47;;;;;;;13.93;11.05;;;16.50;68.60;;;16.21;54.67;95414.25;4988452;28;20193;-86
2021/07/21 04:01:20;;;;;;;18.05;11.90;;;16.50;68.70;;;16.24;55.16;95415.66;5019271;28;20232;-85
2021/07/21 04:03:56;;;;;;;15.68;11.50;;;16.40;68.90;;;16.22;55.26;95413.25;5018723;28;20210;-86
2021/07/21 04:06:32;;;;;;;14.93;11.38;;;16.50;69.00;;;16.23;55.22;95414.84;5004236;28;20283;-85
2021/07/21 04:09:16;;;;;;;14.85;11.20;;;16.50;69.00;;;16.27;54.85;95417.88;5003731;28;20196;-86
2021/07/21 04:11:44;;;;;;;14.15;11.10;;;16.40;69.00;;;16.29;55.18;95418.47;5002581;28;20277;-85
2021/07/21 04:14:20;;;;;;;15.70;11.65;;;16.50;69.00;;;16.29;55.57;95421.91;5003114;28;20303;-86
2021/07/21 04:17:06;;;;;;;13.82;10.50;;;16.50;69.20;;;16.32;55.31;95424.16;5007543;28;20262;-86
2021/07/21 04:19:40;;;;;;;16.80;11.75;;;16.50;69.20;;;16.32;55.76;95431.28;5002655;28;20224;-86
2021/07/21 04:22:08;;;;;;;17.13;11.30;;;16.50;69.30;;;16.33;55.21;95428.44;5018627;28;20188;-85
2021/07/21 04:24:45;;;;;;;15.15;12.00;;;16.50;69.30;;;16.36;55.21;95429.03;5003123;28;20219;-86
2021/07/21 04:27:14;;;;;;;13.23;10.93;;;16.60;69.40;;;16.36;55.50;95432.47;5002820;28;20184;-86
2021/07/21 04:29:51;;;;;;;15.90;11.48;;;16.50;69.40;;;16.38;55.48;95430.44;5003558;28;20216;-86
2021/07/21 04:32:21;;;;;;;15.23;11.80;;;16.50;69.40;;;16.38;55.31;95425.13;5002158;28;20207;-86
2021/07/21 04:34:50;;;;;;;16.05;11.60;;;16.60;69.60;;;16.41;55.70;95429.19;5002805;28;20619;-86
2021/07/21 04:37:21;;;;;;;15.38;11.43;;;16.60;69.60;;;16.42;55.46;95426.31;5019058;28;20196;-86
2021/07/21 04:40:04;;;;;;;16.95;12.48;;;16.60;69.60;;;16.43;55.71;95435.88;4989424;28;20223;-86
2021/07/21 04:42:42;;;;;;;16.35;11.30;;;16.60;69.70;;;16.44;55.83;95440.16;5019845;28;20184;-86
2021/07/21 04:45:12;;;;;;;14.45;10.90;;;16.60;69.70;;;16.48;55.47;95436.03;5002275;28;20215;-85
2021/07/21 04:47:42;;;;;;;15.85;11.15;;;16.60;69.80;;;16.55;55.59;95435.19;5002007;28;20243;-86
2021/07/21 04:50:14;;;;;;;15.35;10.52;;;16.60;69.80;;;16.58;55.19;95429.47;5017779;28;20270;-86
2021/07/21 04:52:43;;;;;;;16.92;11.43;;;16.70;70.00;;;16.64;55.42;95431.25;5017861;28;20629;-86
2021/07/21 04:55:11;;;;;;;13.82;10.90;;;16.70;69.90;;;16.76;55.13;95441.91;5001965;28;20223;-86
2021/07/21 04:57:42;;;;;;;12.63;9.43;;;16.70;69.90;;;16.85;55.10;95445.91;5002277;28;20200;-86
2021/07/21 05:00:18;;;;;;;12.90;10.00;;;16.80;69.80;;;16.94;55.15;95444.66;5003082;28;20247;-86
2021/07/21 05:03:08;;;;;;;15.88;10.57;;;16.80;69.80;;;17.01;54.80;95436.63;5017781;28;20200;-86
2021/07/21 05:05:40;;;;;;;14.43;10.73;;;17.00;69.90;;;17.12;54.84;95443.88;5002363;28;20231;-86
2021/07/21 05:08:09;;;;;;;14.40;10.40;;;17.00;69.80;;;17.17;54.68;95445.84;4985678;28;20474;-86
2021/07/21 05:10:53;;;;;;;15.10;10.90;;;17.00;69.80;;;17.21;54.80;95446.22;5003723;28;20235;-86
2021/07/21 05:13:22;;;;;;;14.35;10.93;;;17.10;69.70;;;17.27;54.79;95446.16;5002014;28;20697;-86
2021/07/21 05:15:50;;;;;;;13.77;10.90;;;17.20;69.80;;;17.32;54.93;95444.66;5001582;28;20315;-86
2021/07/21 05:18:19;;;;;;;15.10;10.45;;;17.30;69.90;;;17.41;54.52;95446.00;5001273;28;20200;-86
2021/07/21 05:20:58;;;;;;;13.95;10.23;;;17.40;69.80;;;17.52;54.60;95452.41;5003070;28;20251;-86
2021/07/21 05:23:27;;;;;;;12.15;9.70;;;17.40;69.90;;;17.63;54.66;95454.31;5001360;28;20262;-85
2021/07/21 05:26:04;;;;;;;13.60;9.38;;;17.40;70.00;;;17.75;54.41;95460.47;5003487;28;20572;-86
2021/07/21 05:28:39;;;;;;;13.10;9.75;;;17.50;70.00;;;17.87;54.46;95449.94;5017052;28;20234;-86
2021/07/21 05:31:32;;;;;;;12.40;9.63;;;17.60;70.10;;;17.99;54.01;95457.16;5011088;28;20283;-86
2021/07/21 05:34:18;;;;;;;12.80;10.05;;;17.70;69.80;;;18.10;53.99;95458.22;5006111;28;20234;-86
2021/07/21 05:36:48;;;;;;;13.95;9.70;;;17.80;69.80;;;18.17;53.94;95461.59;5001346;28;20573;-86
2021/07/21 05:39:29;;;;;;;14.93;10.77;;;17.90;69.70;;;18.22;53.64;95465.22;5002971;28;20223;-87
2021/07/21 05:41:57;;;;;;;14.15;10.52;;;18.00;69.50;;;18.28;54.00;95454.72;5000862;28;20196;-87
2021/07/21 05:44:28;;;;;;;15.43;10.77;;;18.10;69.50;;;18.33;53.60;95463.59;5001121;28;20270;-86
2021/07/21 05:46:57;;;;;;;14.23;9.95;;;18.10;69.30;;;18.41;53.47;95462.50;5001134;28;20254;-86
2021/07/21 05:49:27;;;;;;;13.77;10.30;;;18.20;69.60;;;18.49;53.53;95467.47;5000863;28;20219;-86
2021/07/21 05:52:01;;;;;;;13.25;10.77;;;18.30;69.60;;;18.59;53.44;95477.53;5016900;28;20266;-86
2021/07/21 05:54:37;;;;;;;13.32;10.48;;;18.40;69.60;;;18.68;53.59;95472.72;5016713;28;20255;-87
2021/07/21 05:57:06;;;;;;;12.02;9.63;;;18.40;69.50;;;18.81;53.65;95469.84;5001363;28;20278;-86
2021/07/21 05:59:39;;;;;;;12.65;9.95;;;18.50;69.60;;;18.87;53.67;95466.25;5001246;28;20764;-86
2021/07/21 06:02:08;;;;;;;13.88;9.80;;;18.60;69.40;;;19.00;53.57;95477.72;5000666;28;20629;-87
2021/07/21 06:04:36;;;;;;;14.27;10.48;;;18.70;69.50;;;19.07;53.24;95478.41;5000811;28;20212;-87
2021/07/21 06:07:36;;;;;;;14.40;10.00;;;18.90;69.60;;;19.15;53.10;95482.56;5009468;28;20203;-86
2021/07/21 06:10:40;;;;;;;15.77;11.15;;;18.90;69.30;;;19.20;53.03;95485.38;5033205;28;20339;-87
2021/07/21 06:13:10;;;;;;;16.10;9.85;;;19.00;69.10;;;19.26;52.74;95496.91;4984483;28;20302;-86
2021/07/21 06:15:38;;;;;;;12.15;10.25;;;19.10;69.10;;;19.36;52.66;95497.16;5000500;28;20220;-86
2021/07/21 06:18:07;;;;;;;13.27;10.45;;;19.10;68.80;;;19.44;52.66;95493.31;5000208;28;20287;-86
2021/07/21 06:21:01;;;;;;;9.75;8.60;;;19.20;68.90;;;19.57;52.47;95495.72;5005185;28;20223;-86
2021/07/21 06:23:29;;;;;;;11.98;9.40;;;19.30;69.10;;;19.71;52.10;95495.47;5000260;28;20283;-86
2021/07/21 06:25:57;;;;;;;13.77;9.40;;;19.40;68.90;;;19.82;52.23;95491.97;4984390;28;20220;-86
2021/07/21 06:28:28;;;;;;;11.48;9.05;;;19.40;69.00;;;19.96;51.96;95505.84;5000419;28;20203;-86
2021/07/21 06:30:55;;;;;;;12.77;10.02;;;19.50;68.80;;;20.03;51.38;95503.88;4984158;28;20685;-87
2021/07/21 06:33:24;;;;;;;11.77;9.35;;;19.60;68.50;;;20.10;51.25;95512.53;5016699;28;20223;-87
2021/07/21 06:35:52;;;;;;;12.10;9.45;;;19.70;68.20;;;20.16;51.61;95508.09;5000052;28;20238;-87
2021/07/21 06:38:25;;;;;;;10.55;8.57;;;19.80;68.40;;;20.25;51.61;95503.19;5018316;28;20203;-86
2021/07/21 06:41:03;;;;;;;10.90;8.07;;;19.90;68.40;;;20.42;51.65;95508.56;5008966;28;20228;-87
2021/07/21 06:43:38;;;;;;;9.73;8.18;;;20.00;68.50;;;20.58;51.64;95515.78;5036205;28;20241;-86
2021/07/21 06:46:13;;;;;;;11.48;8.43;;;20.20;68.60;;;20.74;51.10;95511.56;5035451;28;20218;-87
2021/07/21 06:48:43;;;;;;;13.13;9.40;;;20.20;68.40;;;20.90;51.28;95523.28;5035312;28;20206;-86
2021/07/21 06:51:12;;;;;;;10.40;8.13;;;20.30;68.50;;;21.04;51.03;95521.06;5005612;28;20243;-86
2021/07/21 06:53:39;;;;;;;13.65;9.23;;;20.40;68.20;;;21.13;50.58;95518.00;5015431;28;20223;-87
2021/07/21 06:56:13;;;;;;;11.73;9.55;;;20.60;68.30;;;21.30;50.71;95526.00;5032732;28;20216;-87
2021/07/21 06:58:55;;;;;;;11.32;8.73;;;20.80;68.30;;;21.43;51.03;95523.81;5011671;28;20195;-89
2021/07/21 07:01:23;;;;;;;14.73;9.98;;;20.90;68.10;;;21.50;49.83;95526.28;5019513;28;20200;-87
2021/07/21 07:04:09;;;;;;;11.65;8.98;;;21.00;67.40;;;21.53;50.22;95525.81;5024705;28;20764;-87
2021/07/21 07:07:08;;;;;;;10.43;8.38;;;21.10;67.30;;;21.62;49.95;95525.41;5031859;28;20196;-86
2021/07/21 07:09:50;;;;;;;10.05;7.30;;;21.20;67.40;;;21.74;49.63;95529.59;5002795;28;20596;-87
2021/07/21 07:12:24;;;;;;;11.40;7.78;;;21.30;66.90;;;21.88;49.50;95519.34;4999636;28;20208;-86
2021/07/21 07:14:52;;;;;;;7.60;6.72;;;21.40;66.80;;;22.01;49.72;95520.03;5015621;28;20247;-87
2021/07/21 07:17:19;;;;;;;8.50;7.07;;;21.50;67.10;;;22.14;49.25;95524.19;5000239;28;20712;-86
2021/07/21 07:19:46;;;;;;;9.55;7.15;;;21.60;66.50;;;22.25;48.50;95525.91;4999681;28;20213;-87
2021/07/21 07:22:13;;;;;;;10.63;7.50;;;21.70;66.20;;;22.34;48.41;95516.38;5015488;28;20295;-87
2021/07/21 07:24:41;;;;;;;7.53;6.70;;;21.70;66.20;;;22.45;48.39;95524.53;4999059;28;20323;-86
2021/07/21 07:27:08;;;;;;;9.50;6.88;;;21.80;66.30;;;22.58;48.82;95516.09;5010776;28;20202;-86
2021/07/21 07:29:36;;;;;;;7.85;6.28;;;21.90;66.60;;;22.74;48.69;95521.59;5021955;28;20310;-87
2021/07/21 07:32:04;;;;;;;8.45;7.05;;;22.00;66.50;;;22.87;48.39;95523.84;5031738;28;20201;-88
2021/07/21 07:34:31;;;;;;;9.02;7.55;;;22.10;66.00;;;22.99;47.84;95521.00;5017123;28;20226;-87
2021/07/21 07:36:59;;;;;;;7.97;6.88;;;22.30;65.70;;;23.08;47.44;95521.34;5032183;28;20204;-88
2021/07/21 07:39:27;;;;;;;7.90;6.38;;;22.40;66.30;;;23.20;47.89;95522.00;5038616;28;20633;-88
2021/07/21 07:41:56;;;;;;;9.07;6.88;;;22.50;65.70;;;23.34;47.96;95514.34;5017927;28;20218;-87
2021/07/21 07:44:23;;;;;;;8.30;6.65;;;22.60;65.60;;;23.47;47.64;95515.75;5035373;28;20316;-86
2021/07/21 07:46:50;;;;;;;7.85;6.50;;;22.70;65.60;;;23.57;46.79;95506.97;5034142;28;20215;-86
2021/07/21 07:49:18;;;;;;;7.97;6.63;;;22.80;65.70;;;23.72;47.07;95512.41;5039185;28;20227;-84
2021/07/21 07:51:45;;;;;;;11.63;7.03;;;22.90;65.70;;;23.83;46.98;95513.25;4998274;28;20575;-87
2021/07/21 07:54:13;;;;;;;8.25;7.18;;;23.10;65.30;;;23.90;46.65;95513.00;4997253;28;20224;-86
2021/07/21 07:56:41;;;;;;;9.23;6.70;;;23.20;65.20;;;24.00;46.30;95506.91;4996969;28;20740;-86
2021/07/21 07:59:09;;;;;;;7.90;6.22;;;23.30;64.80;;;24.04;46.04;95506.13;5013496;28;20188;-86
2021/07/21 08:01:36;;;;;;;8.02;6.53;;;23.40;64.90;;;24.10;46.01;95513.13;5012023;28;20192;-86
2021/07/21 08:04:04;;;;;;;7.20;6.25;;;23.40;64.50;;;24.12;45.91;95504.81;5014562;28;20205;-86
2021/07/21 08:06:34;;;;;;;9.02;7.03;;;23.50;64.30;;;24.12;45.76;95508.31;5018150;28;20249;-86
2021/07/21 08:09:12;;;;;;;9.10;6.22;;;23.50;64.30;;;24.14;45.76;95513.41;5002546;28;20203;-86
2021/07/21 08:11:44;;;;;;;9.30;6.50;;;23.60;63.80;;;24.13;45.24;95507.25;5003494;28;20222;-86
2021/07/21 08:14:12;;;;;;;7.90;6.50;;;23.60;63.80;;;24.17;44.98;95509.38;5018535;28;20685;-87
2021/07/21 08:16:41;;;;;;;7.80;5.97;;;23.70;64.60;;;24.23;45.61;95513.69;5017679;28;20667;-86
2021/07/21 08:19:08;;;;;;;7.95;6.10;;;23.70;63.90;;;24.34;45.36;95514.53;5039935;28;20206;-86
2021/07/21 08:21:36;;;;;;;8.80;6.65;;;23.70;63.90;;;24.46;45.18;95515.09;5036788;28;20660;-85
2021/07/21 08:24:05;;;;;;;7.90;6.53;;;23.80;64.00;;;24.57;44.95;95514.06;5005143;28;20211;-85
2021/07/21 08:26:32;;;;;;;10.38;6.78;;;23.90;63.50;;;24.67;44.40;95517.84;5053988;28;20282;-87
2021/07/21 08:28:59;;;;;;;10.13;7.18;;;24.00;63.40;;;24.72;44.25;95502.56;5021465;28;20202;-86
2021/07/21 08:31:27;;;;;;;8.75;7.00;;;24.00;63.00;;;24.77;43.63;95512.50;5038240;28;20280;-87
2021/07/21 08:34:00;;;;;;;8.88;6.15;;;24.10;62.70;;;24.75;43.73;95512.75;5017576;28;20235;-87
2021/07/21 08:36:33;;;;;;;7.15;6.18;;;24.10;62.60;;;24.69;43.26;95511.13;5020729;28;20213;-89
2021/07/21 08:39:06;;;;;;;7.45;6.20;;;24.20;63.40;;;24.60;43.72;95508.13;5037880;28;20188;-89
2021/07/21 08:41:38;;;;;;;7.53;6.20;;;24.20;62.50;;;24.59;43.81;95506.53;5007445;28;21613;-88
2021/07/21 08:44:07;;;;;;;6.40;5.65;;;24.20;62.30;;;24.60;43.62;95510.03;5034111;28;20224;-88
2021/07/21 08:46:37;;;;;;;7.85;6.55;;;24.20;62.30;;;24.59;43.67;95511.09;5031387;28;20262;-89
2021/07/21 08:49:07;;;;;;;9.50;6.20;;;24.10;62.20;;;24.59;43.19;95511.09;5009965;28;20207;-87
2021/07/21 08:51:36;;;;;;;7.43;6.38;;;24.10;62.10;;;24.58;42.89;95515.66;5014355;28;20575;-87
2021/07/21 08:54:08;;;;;;;8.95;6.22;;;24.10;61.80;;;24.56;43.08;95506.25;4999539;28;20233;-88
2021/07/21 08:56:35;;;;;;;6.63;5.80;;;24.10;61.90;;;24.55;43.06;95510.03;5032605;28;20298;-88
2021/07/21 08:59:02;;;;;;;8.63;7.05;;;24.10;62.10;;;24.50;43.32;95518.03;5013457;28;20208;-89
2021/07/21 09:01:30;;;;;;;9.60;7.43;;;24.10;61.80;;;24.30;41.63;95515.06;5034456;28;20192;-87
2021/07/21 09:03:58;;;;;;;9.25;7.32;;;24.00;61.10;;;24.20;42.45;95514.22;5009870;28;20646;-88
2021/07/21 09:06:25;;;;;;;7.55;6.30;;;23.90;61.00;;;24.10;42.50;95504.28;5027290;28;20202;-88
2021/07/21 09:08:52;;;;;;;7.80;6.18;;;23.90;60.90;;;24.06;42.64;95504.00;5028529;28;20204;-87
2021/07/21 09:11:20;;;;;;;7.65;6.03;;;23.80;61.20;;;24.11;42.62;95505.91;5011159;28;20694;-87
2021/07/21 09:13:47;;;;;;;8.38;6.60;;;23.80;61.20;;;24.12;42.20;95513.66;5026742;28;20220;-88
2021/07/21 09:16:15;;;;;;;8.00;6.50;;;23.80;61.30;;;24.16;42.61;95513.13;5025180;28;20219;-88
2021/07/21 09:18:51;;;;;;;9.75;6.70;;;23.70;61.50;;;24.26;42.41;95513.19;5038871;28;20221;-86
2021/07/21 09:21:21;;;;;;;7.28;6.15;;;23.70;61.10;;;24.46;42.74;95520.44;5009865;28;20216;-88
2021/07/21 09:23:53;;;;;;;7.50;6.30;;;23.80;61.70;;;24.62;42.33;95514.06;5012048;28;20276;-87
2021/07/21 09:26:23;;;;;;;7.43;6.13;;;23.90;61.80;;;24.91;42.80;95507.38;5029646;28;20238;-87
2021/07/21 09:28:51;;;;;;;6.40;5.80;;;24.00;62.10;;;25.19;42.38;95515.97;5054119;28;20187;-87
2021/07/21 09:31:34;;;;;;;11.75;6.78;;;24.20;62.30;;;25.46;41.98;95509.53;5015557;28;20349;-86
2021/07/21 09:34:18;;;;;;;7.75;5.78;;;24.40;61.50;;;25.70;41.93;95510.53;5039114;28;20770;-88
2021/07/21 09:36:46;;;;;;;7.97;6.15;;;24.60;61.50;;;25.88;41.40;95511.03;5016927;28;20207;-87
2021/07/21 09:39:15;;;;;;;6.97;5.60;;;24.80;61.50;;;25.98;41.63;95513.66;5016070;28;20218;-88
2021/07/21 09:41:50;;;;;;;9.55;6.00;;;25.00;61.40;;;26.02;41.03;95514.72;5018474;28;20299;-87
2021/07/21 09:44:18;;;;;;;8.73;6.10;;;25.20;60.60;;;25.94;40.83;95515.28;5016816;28;20697;-87
2021/07/21 09:46:45;;;;;;;11.05;7.05;;;25.30;60.60;;;25.81;39.91;95519.34;5007258;28;20200;-86
2021/07/21 09:49:22;;;;;;;8.13;6.03;;;25.30;59.40;;;25.70;40.54;95521.28;5047959;28;20203;-86
2021/07/21 09:51:49;;;;;;;8.95;6.65;;;25.30;60.00;;;25.69;40.26;95516.97;5034737;28;20215;-86
2021/07/21 09:54:19;;;;;;;6.75;6.00;;;25.20;59.70;;;25.75;40.11;95507.03;5018038;28;20668;-86
2021/07/21 09:56:50;;;;;;;7.88;6.05;;;25.30;58.90;;;25.93;39.94;95510.16;5043099;28;20235;-86
2021/07/21 09:59:33;;;;;;;7.00;6.30;;;25.30;59.30;;;26.05;39.89;95510.69;5014426;28;20306;-85
2021/07/21 10:02:15;;;;;;;8.60;7.03;;;25.30;59.20;;;26.11;38.88;95517.69;4999147;28;20200;-86
2021/07/21 10:04:46;;;;;;;7.25;6.13;;;25.40;59.00;;;26.12;40.39;95507.72;5000272;28;20217;-86
2021/07/21 10:10:20;;;;;;;7.30;6.32;;;25.50;59.80;;;26.27;40.00;95517.56;4961548;28;20230;-86
2021/07/21 10:13:05;;;;;;;7.28;6.20;;;25.60;59.40;;;26.38;39.75;95521.84;4990192;28;20615;-86
2021/07/21 10:15:33;;;;;;;7.13;6.05;;;25.70;59.10;;;26.47;39.73;95517.47;5000440;28;20230;-86
2021/07/21 10:18:04;;;;;;;7.57;6.18;;;25.70;59.10;;;26.58;39.58;95507.44;4999724;28;20200;-86
2021/07/21 10:20:31;;;;;;;7.72;5.80;;;25.80;59.00;;;26.59;39.38;95509.06;5032593;28;20232;-85
2021/07/21 10:22:59;;;;;;;6.88;6.10;;;25.90;59.00;;;26.59;39.49;95505.59;5016293;28;20753;-85
2021/07/21 10:25:26;;;;;;;7.32;6.00;;;26.00;58.70;;;26.56;39.53;95506.91;5018412;28;20213;-86
2021/07/21 10:27:56;;;;;;;7.35;5.70;;;26.00;58.80;;;26.58;39.13;95503.97;5018491;28;20259;-85
2021/07/21 10:30:25;;;;;;;6.75;6.05;;;26.00;58.90;;;26.67;39.36;95504.97;5024047;28;20248;-86
2021/07/21 10:32:55;;;;;;;6.30;5.70;;;26.00;58.20;;;26.77;37.59;95504.94;4999890;28;20209;-86
2021/07/21 10:35:24;;;;;;;7.03;5.90;;;26.00;57.20;;;26.85;38.60;95492.75;5012587;28;20229;-86
2021/07/21 10:37:53;;;;;;;7.53;6.32;;;26.10;57.50;;;26.91;37.84;95496.22;5019421;28;20200;-86
2021/07/21 10:40:28;;;;;;;7.03;6.10;;;26.20;57.40;;;26.94;38.56;95498.34;5002903;28;20221;-86
2021/07/21 10:42:59;;;;;;;6.40;5.47;;;26.20;57.50;;;26.98;38.14;95494.81;5019302;28;20634;-86
2021/07/21 10:45:32;;;;;;;6.05;5.45;;;26.30;57.50;;;27.06;38.14;95504.19;5025198;28;20250;-86